createdAt,value
2023-02-28T00:00:16.848Z,11.40
2023-02-28T00:02:47.938Z,11.77
2023-02-28T00:05:20.757Z,13.00
2023-02-28T00:07:51.472Z,12.53
2023-02-28T00:10:26.429Z,9.48
2023-02-28T00:13:01.259Z,8.43
2023-02-28T00:15:31.098Z,10.37
2023-02-28T00:18:01.029Z,10.13
2023-02-28T00:20:30.605Z,11.77
2023-02-28T00:23:00.216Z,10.80
2023-02-28T00:25:30.301Z,10.60
2023-02-28T00:28:00.121Z,8.80
2023-02-28T00:30:29.766Z,8.90
2023-02-28T00:33:00.366Z,9.57
2023-02-28T00:35:33.388Z,12.27
2023-02-28T00:38:03.358Z,10.83
2023-02-28T00:40:34.433Z,10.70
2023-02-28T00:43:04.979Z,10.73
2023-02-28T00:45:34.750Z,8.83
2023-02-28T00:48:07.096Z,8.90
2023-02-28T00:50:37.190Z,12.78
2023-02-28T00:53:06.979Z,11.03
2023-02-28T00:55:37.455Z,12.40
2023-02-28T00:58:09.705Z,10.80
2023-02-28T01:00:39.530Z,8.30
2023-02-28T01:03:09.632Z,8.80
2023-02-28T01:05:39.594Z,8.80
2023-02-28T01:08:11.175Z,8.68
2023-02-28T01:10:44.112Z,10.30
2023-02-28T01:13:14.524Z,11.43
2023-02-28T01:15:47.462Z,8.60
2023-02-28T01:18:17.113Z,9.10
2023-02-28T01:20:47.176Z,8.67
2023-02-28T01:23:18.803Z,9.63
2023-02-28T01:25:49.433Z,9.60
2023-02-28T01:28:19.077Z,11.07
2023-02-28T01:30:52.890Z,11.73
2023-02-28T01:33:24.603Z,16.60
2023-02-28T01:36:11.041Z,9.05
2023-02-28T01:38:42.398Z,8.75
2023-02-28T01:41:23.968Z,8.10
2023-02-28T01:43:59.616Z,12.70
2023-02-28T01:46:29.456Z,9.98
2023-02-28T01:49:02.368Z,8.97
2023-02-28T01:51:55.708Z,11.75
2023-02-28T01:54:28.602Z,11.88
2023-02-28T01:57:04.166Z,9.90
2023-02-28T01:59:38.502Z,8.20
2023-02-28T02:02:09.822Z,8.20
2023-02-28T02:04:42.734Z,9.63
2023-02-28T02:07:14.650Z,10.23
2023-02-28T02:09:46.219Z,8.70
2023-02-28T02:12:30.863Z,8.25
2023-02-28T02:15:09.389Z,10.20
2023-02-28T02:17:45.073Z,9.20
2023-02-28T02:20:46.201Z,8.80
2023-02-28T02:23:44.592Z,6.10
2023-02-28T02:26:40.504Z,8.10
2023-02-28T02:29:44.499Z,10.80
2023-02-28T02:32:22.626Z,8.20
2023-02-28T02:35:11.367Z,9.00
2023-02-28T02:37:50.114Z,7.97
2023-02-28T02:40:31.294Z,12.33
2023-02-28T02:43:16.031Z,9.43
2023-02-28T02:45:54.655Z,9.27
2023-02-28T02:48:29.889Z,9.90
2023-02-28T02:51:04.644Z,9.90
2023-02-28T02:53:37.718Z,10.27
2023-02-28T02:56:10.684Z,13.03
2023-02-28T02:58:44.254Z,11.57
2023-02-28T03:01:21.721Z,11.33
2023-02-28T03:03:51.716Z,11.40
2023-02-28T03:06:21.917Z,13.32
2023-02-28T03:08:52.005Z,13.75
2023-02-28T03:11:22.445Z,13.93
2023-02-28T03:14:06.952Z,13.30
2023-02-28T03:16:42.412Z,10.77
2023-02-28T03:19:34.629Z,10.13
2023-02-28T03:22:33.350Z,10.53
2023-02-28T03:25:15.226Z,12.10
2023-02-28T03:27:48.226Z,9.37
2023-02-28T03:30:26.654Z,12.80
2023-02-28T03:33:11.264Z,12.20
2023-02-28T03:35:47.191Z,13.88
2023-02-28T03:38:42.210Z,9.83
2023-02-28T03:41:18.184Z,12.25
2023-02-28T03:43:56.019Z,12.90
2023-02-28T03:46:28.947Z,12.27
2023-02-28T03:49:07.972Z,8.70
2023-02-28T03:51:40.121Z,9.68
2023-02-28T03:54:14.214Z,10.90
2023-02-28T03:56:47.003Z,10.67
2023-02-28T03:59:28.524Z,9.77
2023-02-28T04:01:59.809Z,8.25
2023-02-28T04:04:29.987Z,8.47
2023-02-28T04:07:08.507Z,10.10
2023-02-28T04:09:38.877Z,8.53
2023-02-28T04:12:10.570Z,13.27
2023-02-28T04:14:40.749Z,10.90
2023-02-28T04:17:10.636Z,11.37
2023-02-28T04:19:40.332Z,9.05
2023-02-28T04:22:12.312Z,10.17
2023-02-28T04:24:42.540Z,8.37
2023-02-28T04:27:12.619Z,12.37
2023-02-28T04:29:44.063Z,9.07
2023-02-28T04:32:13.856Z,7.17
2023-02-28T04:34:43.720Z,7.80
2023-02-28T04:37:14.495Z,9.67
2023-02-28T04:39:44.820Z,8.97
2023-02-28T04:42:14.835Z,11.53
2023-02-28T04:44:44.590Z,10.07
2023-02-28T04:47:14.814Z,8.73
2023-02-28T04:49:44.381Z,13.70
2023-02-28T04:52:14.225Z,10.30
2023-02-28T04:54:43.977Z,8.27
2023-02-28T04:57:13.901Z,11.23
2023-02-28T04:59:43.952Z,10.55
2023-02-28T05:02:15.518Z,8.93
2023-02-28T05:04:44.997Z,9.30
2023-02-28T05:07:15.091Z,8.50
2023-02-28T05:09:44.969Z,6.83
2023-02-28T05:12:14.440Z,8.30
2023-02-28T05:14:45.124Z,7.40
2023-02-28T05:17:14.962Z,7.60
2023-02-28T05:19:44.721Z,8.47
2023-02-28T05:22:19.738Z,11.63
2023-02-28T05:24:52.953Z,8.58
2023-02-28T05:27:22.817Z,11.27
2023-02-28T05:29:53.182Z,7.37
2023-02-28T05:32:22.909Z,7.67
2023-02-28T05:34:52.676Z,8.77
2023-02-28T05:37:22.810Z,10.53
2023-02-28T05:39:52.646Z,10.00
2023-02-28T05:42:22.218Z,8.20
2023-02-28T05:44:52.926Z,9.13
2023-02-28T05:47:22.763Z,6.93
2023-02-28T05:49:52.838Z,7.83
2023-02-28T05:52:25.631Z,8.10
2023-02-28T05:54:55.509Z,10.57
2023-02-28T05:57:25.931Z,9.93
2023-02-28T05:59:55.697Z,7.73
2023-02-28T06:02:25.515Z,9.78
2023-02-28T06:04:55.667Z,9.83
2023-02-28T06:07:27.558Z,9.63
2023-02-28T06:09:57.663Z,10.48
2023-02-28T06:12:27.676Z,9.70
2023-02-28T06:14:57.517Z,5.90
2023-02-28T06:17:27.392Z,8.20
2023-02-28T06:19:57.201Z,4.57
2023-02-28T06:22:26.780Z,5.83
2023-02-28T06:24:57.860Z,10.28
2023-02-28T06:27:27.728Z,8.47
2023-02-28T06:29:57.985Z,8.08
2023-02-28T06:32:27.841Z,6.75
2023-02-28T06:34:59.057Z,7.17
2023-02-28T06:37:28.580Z,10.70
2023-02-28T06:39:58.673Z,7.87
2023-02-28T06:42:29.759Z,7.55
2023-02-28T06:44:59.973Z,7.40
2023-02-28T06:47:29.755Z,5.27
2023-02-28T06:49:59.609Z,5.20
2023-02-28T06:52:29.120Z,14.50
2023-02-28T06:55:01.772Z,21.40
2023-02-28T06:57:32.706Z,5.08
2023-02-28T07:00:05.424Z,6.70
2023-02-28T07:02:35.718Z,6.80
2023-02-28T07:05:09.584Z,4.65
2023-02-28T07:07:41.144Z,4.77
2023-02-28T07:10:14.514Z,6.85
2023-02-28T07:12:46.223Z,5.60
2023-02-28T07:15:16.106Z,6.95
2023-02-28T07:17:46.079Z,4.17
2023-02-28T07:20:15.751Z,5.43
2023-02-28T07:22:45.310Z,4.55
2023-02-28T07:25:15.158Z,7.77
2023-02-28T07:27:44.906Z,9.50
2023-02-28T07:30:15.706Z,13.18
2023-02-28T07:32:46.000Z,5.83
2023-02-28T07:35:16.349Z,5.65
2023-02-28T07:37:48.025Z,7.90
2023-02-28T07:40:18.817Z,4.42
2023-02-28T07:42:48.518Z,8.85
2023-02-28T07:45:20.599Z,5.00
2023-02-28T07:47:50.632Z,4.90
2023-02-28T07:50:20.474Z,5.20
2023-02-28T07:52:50.333Z,4.87
2023-02-28T07:55:21.393Z,7.27
2023-02-28T07:57:51.237Z,4.27
2023-02-28T08:00:21.561Z,4.17
2023-02-28T08:02:52.161Z,4.17
2023-02-28T08:05:22.489Z,3.40
2023-02-28T08:07:52.492Z,2.07
2023-02-28T08:10:22.180Z,2.83
2023-02-28T08:12:52.301Z,3.80
2023-02-28T08:15:22.001Z,3.75
2023-02-28T08:17:53.418Z,3.97
2023-02-28T08:20:23.381Z,1.63
2023-02-28T08:22:53.366Z,3.40
2023-02-28T08:25:23.140Z,2.27
2023-02-28T08:27:55.903Z,5.23
2023-02-28T08:30:25.780Z,2.72
2023-02-28T08:32:56.316Z,2.97
2023-02-28T08:35:26.167Z,2.30
2023-02-28T08:37:56.013Z,5.93
2023-02-28T08:40:25.915Z,2.43
2023-02-28T08:42:55.785Z,3.13
2023-02-28T08:45:25.735Z,2.80
2023-02-28T08:47:56.899Z,3.23
2023-02-28T08:50:26.662Z,1.85
2023-02-28T08:52:56.529Z,1.90
2023-02-28T08:55:28.678Z,3.00
2023-02-28T08:57:59.503Z,2.45
2023-02-28T09:00:29.124Z,4.23
2023-02-28T09:02:58.917Z,2.43
2023-02-28T09:05:30.286Z,1.92
2023-02-28T09:08:00.161Z,2.40
2023-02-28T09:10:29.791Z,2.40
2023-02-28T09:12:59.604Z,2.00
2023-02-28T09:15:29.376Z,1.53
2023-02-28T09:18:01.195Z,2.83
2023-02-28T09:20:30.679Z,1.70
2023-02-28T09:23:00.805Z,3.67
2023-02-28T09:25:30.674Z,3.00
2023-02-28T09:28:00.464Z,2.70
2023-02-28T09:30:30.333Z,6.17
2023-02-28T09:33:00.185Z,2.57
2023-02-28T09:35:31.672Z,1.30
2023-02-28T09:38:03.137Z,4.07
2023-02-28T09:40:33.433Z,3.03
2023-02-28T09:43:03.397Z,1.63
2023-02-28T09:45:36.230Z,2.80
2023-02-28T09:48:29.368Z,2.27
2023-02-28T09:51:07.873Z,2.40
2023-02-28T09:53:40.936Z,5.12
2023-02-28T09:56:17.473Z,2.20
2023-02-28T09:59:04.631Z,1.60
2023-02-28T10:01:43.278Z,3.77
2023-02-28T10:04:27.899Z,1.80
2023-02-28T10:06:58.788Z,2.93
2023-02-28T10:09:31.863Z,4.10
2023-02-28T10:12:09.975Z,1.40
2023-02-28T10:14:42.807Z,2.10
2023-02-28T10:17:19.670Z,1.60
2023-02-28T10:20:05.436Z,2.17
2023-02-28T10:22:38.457Z,1.67
2023-02-28T10:25:20.483Z,2.60
2023-02-28T10:27:51.110Z,1.73
2023-02-28T10:30:23.530Z,1.90
2023-02-28T10:32:57.449Z,1.83
2023-02-28T10:35:28.743Z,1.97
2023-02-28T10:38:01.846Z,1.50
2023-02-28T10:40:34.685Z,2.17
2023-02-28T10:43:17.976Z,2.10
2023-02-28T10:46:04.362Z,2.23
2023-02-28T10:48:51.996Z,1.55
2023-02-28T10:51:23.558Z,2.03
2023-02-28T10:54:01.611Z,1.02
2023-02-28T10:56:29.618Z,1.67
2023-02-28T10:59:12.785Z,1.27
2023-02-28T11:01:49.295Z,1.30
2023-02-28T11:04:30.819Z,1.50
2023-02-28T11:07:08.650Z,2.40
2023-02-28T11:09:41.672Z,4.20
2023-02-28T11:12:25.188Z,2.70
2023-02-28T11:15:03.916Z,2.37
2023-02-28T11:17:35.042Z,3.87
2023-02-28T11:20:08.854Z,2.63
2023-02-28T11:22:44.627Z,2.27
2023-02-28T11:25:19.262Z,3.17
2023-02-28T11:27:57.488Z,2.40
2023-02-28T11:30:30.325Z,2.05
2023-02-28T11:32:59.951Z,1.42
2023-02-28T11:35:36.003Z,2.50
2023-02-28T11:38:13.679Z,4.00
2023-02-28T11:41:01.393Z,2.13
2023-02-28T11:43:52.266Z,3.03
2023-02-28T11:46:52.236Z,1.92
2023-02-28T11:49:33.833Z,2.67
2023-02-28T11:52:15.256Z,3.70
2023-02-28T11:55:06.225Z,3.23
2023-02-28T11:57:39.086Z,3.80
2023-02-28T12:00:26.250Z,2.98
2023-02-28T12:03:22.767Z,3.13
2023-02-28T12:05:55.806Z,2.37
2023-02-28T12:08:46.750Z,3.33
2023-02-28T12:11:29.147Z,2.40
2023-02-28T12:14:23.115Z,3.70
2023-02-28T12:16:58.611Z,2.40
2023-02-28T12:19:44.715Z,6.65
2023-02-28T12:22:30.377Z,2.05
2023-02-28T12:25:20.833Z,2.77
2023-02-28T12:27:53.466Z,4.20
2023-02-28T12:30:25.708Z,1.83
2023-02-28T12:33:07.318Z,3.35
2023-02-28T12:35:44.345Z,2.30
2023-02-28T12:38:23.150Z,3.70
2023-02-28T12:41:15.222Z,3.47
2023-02-28T12:43:48.426Z,2.47
2023-02-28T12:46:24.214Z,2.62
2023-02-28T12:48:57.640Z,2.02
2023-02-28T12:51:29.055Z,2.27
2023-02-28T12:54:29.243Z,2.47
2023-02-28T12:57:27.889Z,6.60
2023-02-28T13:00:00.749Z,6.67
2023-02-28T13:03:00.606Z,2.13
2023-02-28T13:05:34.975Z,6.72
2023-02-28T13:08:35.313Z,3.00
2023-02-28T13:11:09.998Z,2.43
2023-02-28T13:13:37.254Z,2.63
2023-02-28T13:16:13.040Z,2.07
2023-02-28T13:18:45.858Z,2.33
2023-02-28T13:21:30.532Z,4.15
2023-02-28T13:24:03.654Z,2.30
2023-02-28T13:26:39.375Z,2.77
2023-02-28T13:29:20.871Z,2.33
2023-02-28T13:32:11.546Z,4.17
2023-02-28T13:34:43.757Z,7.83
2023-02-28T13:37:27.060Z,5.50
2023-02-28T13:40:00.878Z,3.70
2023-02-28T13:42:48.329Z,2.97
2023-02-28T13:45:29.336Z,2.50
2023-02-28T13:48:04.703Z,3.70
2023-02-28T13:50:38.881Z,1.98
2023-02-28T13:53:20.827Z,2.45
2023-02-28T13:56:18.860Z,1.90
2023-02-28T13:58:56.781Z,3.90
2023-02-28T14:01:33.082Z,1.83
2023-02-28T14:04:38.856Z,2.37
2023-02-28T14:07:11.267Z,3.90
2023-02-28T14:09:44.232Z,4.07
2023-02-28T14:12:49.995Z,2.72
2023-02-28T14:15:35.128Z,1.62
2023-02-28T14:18:09.548Z,1.80
2023-02-28T14:20:40.868Z,2.13
2023-02-28T14:23:28.548Z,1.70
2023-02-28T14:26:07.842Z,4.47
2023-02-28T14:28:52.690Z,4.57
2023-02-28T14:31:30.071Z,6.77
2023-02-28T14:34:08.788Z,2.87
2023-02-28T14:36:40.655Z,4.75
2023-02-28T14:39:22.736Z,2.33
2023-02-28T14:41:53.040Z,3.83
2023-02-28T14:44:28.202Z,3.40
2023-02-28T14:47:07.090Z,5.83
2023-02-28T14:49:42.415Z,4.37
2023-02-28T14:52:19.613Z,3.93
2023-02-28T14:54:54.966Z,1.37
2023-02-28T14:57:33.001Z,2.97
2023-02-28T15:00:17.986Z,2.33
2023-02-28T15:02:50.690Z,2.95
2023-02-28T15:05:29.110Z,1.93
2023-02-28T15:08:21.454Z,3.53
2023-02-28T15:11:03.250Z,2.20
2023-02-28T15:13:45.943Z,1.60
2023-02-28T15:16:24.639Z,3.00
2023-02-28T15:19:00.219Z,1.50
2023-02-28T15:21:33.279Z,3.00
2023-02-28T15:24:05.953Z,1.35
2023-02-28T15:26:44.760Z,3.10
2023-02-28T15:29:23.320Z,3.33
2023-02-28T15:31:58.804Z,4.73
2023-02-28T15:34:42.882Z,3.70
2023-02-28T15:37:31.639Z,2.87
2023-02-28T15:40:19.191Z,2.90
2023-02-28T15:43:04.484Z,3.63
2023-02-28T15:46:02.630Z,2.22
2023-02-28T15:48:51.456Z,2.77
2023-02-28T15:51:23.519Z,3.08
2023-02-28T15:54:02.624Z,4.67
2023-02-28T15:56:35.963Z,8.67
2023-02-28T15:59:08.741Z,2.30
2023-02-28T16:01:40.416Z,2.07
2023-02-28T16:04:20.112Z,1.63
2023-02-28T16:07:01.763Z,1.80
2023-02-28T16:09:34.419Z,2.77
2023-02-28T16:12:06.418Z,3.47
2023-02-28T16:14:39.732Z,3.47
2023-02-28T16:17:24.212Z,4.47
2023-02-28T16:19:54.500Z,2.67
2023-02-28T16:25:05.237Z,7.53
2023-02-28T16:27:38.008Z,2.57
2023-02-28T16:30:12.303Z,1.75
2023-02-28T16:32:42.128Z,3.17
2023-02-28T16:35:15.147Z,2.58
2023-02-28T16:37:44.878Z,4.57
2023-02-28T16:40:19.149Z,2.85
2023-02-28T16:42:51.207Z,2.73
2023-02-28T16:45:23.718Z,6.22
2023-02-28T16:47:54.103Z,3.25
2023-02-28T16:50:26.372Z,1.90
2023-02-28T16:52:56.625Z,3.33
2023-02-28T16:55:28.368Z,2.17
2023-02-28T16:58:00.691Z,6.53
2023-02-28T17:00:32.411Z,6.00
2023-02-28T17:03:05.218Z,3.80
2023-02-28T17:05:38.478Z,4.07
2023-02-28T17:08:11.684Z,4.33
2023-02-28T17:10:41.456Z,3.23
2023-02-28T17:13:15.090Z,6.00
2023-02-28T17:15:43.443Z,5.20
2023-02-28T17:18:19.921Z,4.27
2023-02-28T17:20:50.724Z,4.27
2023-02-28T17:23:20.839Z,5.78
2023-02-28T17:25:58.211Z,4.70
2023-02-28T17:28:28.083Z,4.10
2023-02-28T17:30:57.973Z,3.33
2023-02-28T17:33:27.774Z,5.23
2023-02-28T17:35:57.741Z,4.97
2023-02-28T17:38:27.549Z,3.50
2023-02-28T17:40:58.282Z,3.00
2023-02-28T17:43:29.550Z,3.23
2023-02-28T17:45:59.671Z,3.40
2023-02-28T17:48:31.414Z,4.17
2023-02-28T17:51:01.226Z,4.03
2023-02-28T17:53:33.309Z,3.57
2023-02-28T17:56:03.386Z,4.45
2023-02-28T17:58:33.181Z,3.40
2023-02-28T18:01:03.236Z,5.22
2023-02-28T18:03:33.091Z,7.87
2023-02-28T18:06:04.162Z,9.00
2023-02-28T18:08:37.566Z,6.57
2023-02-28T18:11:07.387Z,7.97
2023-02-28T18:13:37.155Z,10.33
2023-02-28T18:16:07.545Z,6.97
2023-02-28T18:18:38.495Z,9.20
2023-02-28T18:21:09.904Z,11.17
2023-02-28T18:23:41.643Z,7.40
2023-02-28T18:26:12.200Z,6.78
2023-02-28T18:28:43.873Z,5.17
2023-02-28T18:31:16.680Z,5.47
2023-02-28T18:33:51.876Z,8.80
2023-02-28T18:36:22.627Z,4.67
2023-02-28T18:38:53.142Z,5.10
2023-02-28T18:41:23.373Z,6.60
2023-02-28T18:43:54.128Z,7.63
2023-02-28T18:46:24.319Z,8.40
2023-02-28T18:48:54.180Z,5.10
2023-02-28T18:51:29.034Z,8.53
2023-02-28T18:54:01.406Z,8.05
2023-02-28T18:56:31.593Z,5.93
2023-02-28T18:59:01.859Z,9.30
2023-02-28T19:01:33.544Z,7.47
2023-02-28T19:04:03.968Z,5.95
2023-02-28T19:06:35.133Z,6.53
2023-02-28T19:09:05.471Z,8.28
2023-02-28T19:11:36.682Z,7.43
2023-02-28T19:14:08.081Z,5.87
2023-02-28T19:16:38.290Z,6.47
2023-02-28T19:19:08.174Z,6.50
2023-02-28T19:21:38.012Z,8.13
2023-02-28T19:24:09.853Z,7.67
2023-02-28T19:26:39.688Z,6.13
2023-02-28T19:29:09.433Z,8.67
2023-02-28T19:31:39.282Z,9.13
2023-02-28T19:34:11.077Z,9.65
2023-02-28T19:36:40.840Z,7.90
2023-02-28T19:39:12.658Z,11.60
2023-02-28T19:41:42.716Z,12.90
2023-02-28T19:44:13.296Z,12.33
2023-02-28T19:46:44.366Z,11.33
2023-02-28T19:49:14.219Z,14.67
2023-02-28T19:51:44.554Z,16.17
2023-02-28T19:54:14.194Z,17.50
2023-02-28T19:56:44.057Z,13.23
2023-02-28T19:59:21.206Z,17.47
2023-02-28T20:01:46.266Z,17.17
2023-02-28T20:04:16.051Z,17.00
2023-02-28T20:06:45.810Z,18.87
2023-02-28T20:09:16.552Z,15.95
2023-02-28T20:11:47.536Z,13.87
2023-02-28T20:14:17.820Z,16.00
2023-02-28T20:16:48.130Z,12.15
2023-02-28T20:19:18.717Z,13.67
2023-02-28T20:21:48.587Z,14.03
2023-02-28T20:24:18.100Z,11.73
2023-02-28T20:26:47.949Z,15.97
2023-02-28T20:29:17.702Z,17.13
2023-02-28T20:31:47.764Z,12.90
2023-02-28T20:34:17.910Z,13.13
2023-02-28T20:36:47.814Z,12.40
2023-02-28T20:39:17.871Z,14.30
2023-02-28T20:41:47.629Z,14.63
2023-02-28T20:44:17.393Z,13.55
2023-02-28T20:46:47.138Z,10.97
2023-02-28T20:49:17.297Z,13.48
2023-02-28T20:51:47.106Z,16.23
2023-02-28T20:54:16.875Z,14.13
2023-02-28T20:56:46.798Z,11.23
2023-02-28T20:59:16.621Z,11.87
2023-02-28T21:01:46.536Z,14.27
2023-02-28T21:04:16.444Z,15.40
2023-02-28T21:06:47.893Z,14.10
2023-02-28T21:09:17.751Z,12.00
2023-02-28T21:11:47.966Z,13.00
2023-02-28T21:14:18.994Z,13.77
2023-02-28T21:16:48.888Z,11.50
2023-02-28T21:19:18.825Z,10.83
2023-02-28T21:21:49.014Z,12.73
2023-02-28T21:24:21.068Z,15.00
2023-02-28T21:26:51.874Z,11.37
2023-02-28T21:29:21.713Z,9.50
2023-02-28T21:31:53.877Z,13.53
2023-02-28T21:34:23.508Z,11.45
2023-02-28T21:36:54.343Z,12.10
2023-02-28T21:39:28.749Z,14.77
2023-02-28T21:42:00.509Z,12.43
2023-02-28T21:44:30.769Z,12.20
2023-02-28T21:47:03.287Z,14.83
2023-02-28T21:49:33.276Z,14.83
2023-02-28T21:52:03.038Z,12.53
2023-02-28T21:54:32.793Z,9.93
2023-02-28T21:57:02.619Z,18.13
2023-02-28T21:59:32.512Z,12.00
2023-02-28T22:02:02.369Z,14.90
2023-02-28T22:04:32.202Z,15.20
2023-02-28T22:07:02.165Z,17.47
2023-02-28T22:09:32.592Z,15.30
2023-02-28T22:12:02.655Z,13.53
2023-02-28T22:14:33.000Z,14.28
2023-02-28T22:17:03.162Z,14.23
2023-02-28T22:19:34.659Z,15.40
2023-02-28T22:22:04.437Z,11.33
2023-02-28T22:24:34.501Z,10.95
2023-02-28T22:27:04.331Z,12.43
2023-02-28T22:29:34.514Z,11.08
2023-02-28T22:32:04.770Z,13.95
2023-02-28T22:34:34.270Z,13.50
2023-02-28T22:37:04.052Z,12.97
2023-02-28T22:39:33.935Z,12.43
2023-02-28T22:42:03.693Z,12.00
2023-02-28T22:44:33.453Z,13.67
2023-02-28T22:47:03.580Z,15.23
2023-02-28T22:49:33.490Z,15.60
2023-02-28T22:52:03.263Z,17.20
2023-02-28T22:54:33.070Z,11.60
2023-02-28T22:57:02.973Z,14.20
2023-02-28T22:59:32.827Z,14.20
2023-02-28T23:02:02.637Z,13.93
2023-02-28T23:04:32.785Z,12.15
2023-02-28T23:07:02.555Z,13.40
2023-02-28T23:09:32.320Z,14.60
2023-02-28T23:12:02.057Z,17.30
2023-02-28T23:14:31.908Z,16.00
2023-02-28T23:17:01.980Z,17.52
2023-02-28T23:19:32.465Z,16.10
2023-02-28T23:22:03.550Z,17.73
2023-02-28T23:24:35.545Z,17.93
2023-02-28T23:27:07.248Z,18.15
2023-02-28T23:29:37.448Z,15.13
2023-02-28T23:32:09.070Z,13.97
2023-02-28T23:34:38.949Z,14.23
2023-02-28T23:37:08.745Z,14.25
2023-02-28T23:39:38.791Z,16.90
2023-02-28T23:42:10.944Z,13.52
2023-02-28T23:44:40.845Z,12.77
2023-02-28T23:47:12.242Z,14.93
2023-02-28T23:49:42.034Z,15.03
2023-02-28T23:52:14.021Z,15.65
2023-02-28T23:54:44.245Z,15.43
2023-02-28T23:57:14.154Z,15.43
2023-02-28T23:59:43.996Z,11.87
